createdAt,value
2017-11-29T00:02:19.705Z,3.80
2017-11-29T00:04:47.380Z,3.90
2017-11-29T00:07:15.079Z,3.90
2017-11-29T00:09:43.507Z,3.80
2017-11-29T00:12:11.141Z,3.80
2017-11-29T00:14:38.829Z,3.80
2017-11-29T00:17:06.477Z,3.80
2017-11-29T00:19:34.236Z,3.60
2017-11-29T00:22:01.872Z,3.60
2017-11-29T00:24:30.396Z,3.60
2017-11-29T00:26:58.050Z,3.60
2017-11-29T00:29:25.702Z,3.50
2017-11-29T00:31:53.389Z,3.50
2017-11-29T00:34:21.069Z,3.50
2017-11-29T00:36:48.828Z,3.40
2017-11-29T00:39:16.547Z,3.40
2017-11-29T00:41:44.204Z,3.50
2017-11-29T00:44:12.189Z,3.50
2017-11-29T00:46:39.817Z,3.50
2017-11-29T00:49:07.468Z,3.50
2017-11-29T00:51:35.865Z,3.60
2017-11-29T00:54:03.569Z,3.60
2017-11-29T00:56:31.259Z,3.60
2017-11-29T00:58:59.710Z,3.70
2017-11-29T01:01:27.407Z,3.70
2017-11-29T01:03:55.159Z,3.70
2017-11-29T01:06:23.617Z,3.60
2017-11-29T01:08:51.235Z,3.70
2017-11-29T01:11:18.949Z,3.60
2017-11-29T01:13:47.357Z,3.60
2017-11-29T01:16:15.772Z,3.60
2017-11-29T01:18:43.441Z,3.60
2017-11-29T01:21:11.068Z,3.70
2017-11-29T01:23:38.768Z,3.60
2017-11-29T01:26:06.453Z,3.60
2017-11-29T01:28:34.875Z,3.70
2017-11-29T01:31:02.495Z,3.60
2017-11-29T01:33:31.016Z,3.60
2017-11-29T01:35:58.634Z,3.60
2017-11-29T01:38:27.104Z,3.60
2017-11-29T01:40:55.593Z,3.70
2017-11-29T01:43:24.060Z,3.60
2017-11-29T01:45:52.552Z,3.60
2017-11-29T01:48:20.984Z,3.60
2017-11-29T01:50:48.651Z,3.60
2017-11-29T01:53:16.345Z,3.60
2017-11-29T01:55:44.937Z,3.60
2017-11-29T01:58:13.371Z,3.60
2017-11-29T02:00:50.018Z,3.60
2017-11-29T02:03:18.544Z,3.60
2017-11-29T02:05:46.188Z,3.60
2017-11-29T02:08:13.889Z,3.60
2017-11-29T02:10:42.335Z,3.60
2017-11-29T02:13:10.037Z,3.60
2017-11-29T02:15:37.776Z,3.70
2017-11-29T02:18:06.288Z,3.60
2017-11-29T02:20:33.991Z,3.60
2017-11-29T02:23:01.766Z,3.70
2017-11-29T02:25:29.452Z,3.70
2017-11-29T02:27:57.938Z,3.70
2017-11-29T02:30:25.706Z,3.70
2017-11-29T02:32:53.404Z,3.70
2017-11-29T02:35:21.129Z,3.70
2017-11-29T02:37:48.822Z,3.70
2017-11-29T02:40:28.356Z,3.80
2017-11-29T02:42:56.091Z,3.80
2017-11-29T02:45:23.844Z,3.80
2017-11-29T02:47:51.618Z,3.80
2017-11-29T02:50:19.376Z,3.80
2017-11-29T02:52:47.085Z,3.70
2017-11-29T02:55:14.863Z,3.70
2017-11-29T02:57:42.698Z,3.70
2017-11-29T03:00:10.407Z,3.70
2017-11-29T03:02:39.021Z,3.60
2017-11-29T03:05:06.838Z,3.60
2017-11-29T03:07:34.548Z,3.60
2017-11-29T03:10:02.198Z,3.60
2017-11-29T03:12:30.603Z,3.60
2017-11-29T03:14:58.232Z,3.60
2017-11-29T03:17:25.889Z,3.50
2017-11-29T03:19:53.652Z,3.50
2017-11-29T03:22:21.304Z,3.50
2017-11-29T03:24:49.878Z,3.60
2017-11-29T03:27:18.303Z,3.60
2017-11-29T03:29:46.013Z,3.60
2017-11-29T03:32:14.440Z,3.50
2017-11-29T03:34:42.048Z,3.60
2017-11-29T03:37:10.626Z,3.50
2017-11-29T03:39:38.241Z,3.50
2017-11-29T03:42:05.921Z,3.50
2017-11-29T03:44:33.533Z,3.50
2017-11-29T03:47:01.144Z,3.40
2017-11-29T03:49:29.369Z,3.40
2017-11-29T03:51:57.138Z,3.50
2017-11-29T03:54:24.784Z,3.50
2017-11-29T03:56:52.392Z,3.50
2017-11-29T03:59:20.091Z,3.40
2017-11-29T04:01:48.476Z,3.50
2017-11-29T04:04:16.154Z,3.40
2017-11-29T04:06:45.017Z,3.40
2017-11-29T04:09:13.463Z,3.30
2017-11-29T04:11:41.207Z,3.30
2017-11-29T04:14:09.668Z,3.40
2017-11-29T04:16:37.361Z,3.40
2017-11-29T04:19:06.839Z,3.40
2017-11-29T04:21:34.530Z,3.40
2017-11-29T04:24:02.282Z,3.40
2017-11-29T04:26:29.956Z,3.40
2017-11-29T04:28:57.695Z,3.40
2017-11-29T04:31:25.320Z,3.40
2017-11-29T04:33:52.945Z,3.40
2017-11-29T04:36:20.602Z,3.50
2017-11-29T04:38:48.228Z,3.50
2017-11-29T04:41:15.961Z,3.50
2017-11-29T04:43:43.624Z,3.50
2017-11-29T04:46:12.509Z,3.50
2017-11-29T04:48:40.193Z,3.50
2017-11-29T04:51:08.693Z,3.50
2017-11-29T04:53:36.472Z,3.50
2017-11-29T04:56:04.190Z,3.50
2017-11-29T04:58:31.964Z,3.50
2017-11-29T05:01:00.450Z,3.50
2017-11-29T05:03:28.244Z,3.50
2017-11-29T05:05:56.017Z,3.50
2017-11-29T05:08:23.723Z,3.40
2017-11-29T05:10:51.459Z,3.50
2017-11-29T05:13:19.225Z,3.40
2017-11-29T05:15:47.721Z,3.40
2017-11-29T05:18:15.485Z,3.40
2017-11-29T05:20:43.381Z,3.40
2017-11-29T05:23:11.086Z,3.40
2017-11-29T05:25:39.524Z,3.50
2017-11-29T05:28:07.243Z,3.50
2017-11-29T05:30:35.004Z,3.40
2017-11-29T05:33:02.939Z,3.50
2017-11-29T05:35:31.468Z,3.50
2017-11-29T05:37:59.160Z,3.50
2017-11-29T05:40:26.970Z,3.50
2017-11-29T05:42:55.440Z,3.60
2017-11-29T05:45:23.997Z,3.60
2017-11-29T05:47:51.680Z,3.60
2017-11-29T05:50:19.370Z,3.60
2017-11-29T05:52:47.188Z,3.60
2017-11-29T05:55:14.942Z,3.70
2017-11-29T05:57:42.748Z,3.60
2017-11-29T06:00:10.420Z,3.70
2017-11-29T06:02:39.017Z,3.70
2017-11-29T06:05:06.768Z,3.70
2017-11-29T06:07:34.548Z,3.70
2017-11-29T06:10:02.357Z,3.60
2017-11-29T06:12:30.818Z,3.60
2017-11-29T06:14:58.501Z,3.70
2017-11-29T06:17:26.940Z,3.70
2017-11-29T06:19:54.591Z,3.70
2017-11-29T06:22:22.502Z,3.70
2017-11-29T06:24:50.945Z,3.80
2017-11-29T06:27:18.658Z,3.70
2017-11-29T06:29:46.331Z,3.80
2017-11-29T06:32:14.164Z,3.70
2017-11-29T06:34:41.897Z,3.70
2017-11-29T06:37:09.530Z,3.70
2017-11-29T06:39:37.188Z,3.80
2017-11-29T06:42:05.928Z,3.70
2017-11-29T06:44:33.562Z,3.70
2017-11-29T06:47:01.249Z,3.70
2017-11-29T06:49:29.677Z,3.70
2017-11-29T06:51:57.301Z,3.70
2017-11-29T06:54:25.729Z,3.70
2017-11-29T06:56:53.371Z,3.70
2017-11-29T06:59:21.102Z,3.80
2017-11-29T07:01:49.610Z,3.80
2017-11-29T07:04:17.321Z,3.80
2017-11-29T07:06:44.956Z,3.80
2017-11-29T07:09:13.023Z,3.80
2017-11-29T07:11:40.692Z,3.80
2017-11-29T07:14:08.320Z,3.70
2017-11-29T07:16:36.025Z,3.70
2017-11-29T07:19:03.678Z,3.70
2017-11-29T07:21:31.321Z,3.70
2017-11-29T07:23:59.015Z,3.80
2017-11-29T07:26:26.666Z,3.80
2017-11-29T07:28:54.336Z,3.70
2017-11-29T07:31:22.001Z,3.70
2017-11-29T07:33:50.391Z,3.70
2017-11-29T07:36:18.119Z,3.70
2017-11-29T07:38:45.797Z,3.70
2017-11-29T07:41:13.431Z,3.70
2017-11-29T07:43:41.086Z,3.70
2017-11-29T07:46:08.717Z,3.80
2017-11-29T07:48:36.517Z,3.90
2017-11-29T07:51:04.137Z,3.90
2017-11-29T07:53:31.776Z,4.00
2017-11-29T07:55:59.449Z,3.90
2017-11-29T07:58:27.109Z,4.00
2017-11-29T08:00:55.615Z,4.00
2017-11-29T08:03:23.253Z,4.00
2017-11-29T08:05:50.866Z,4.00
2017-11-29T08:08:18.518Z,4.00
2017-11-29T08:10:46.168Z,4.00
2017-11-29T08:13:13.833Z,4.00
2017-11-29T08:15:41.459Z,4.00
2017-11-29T08:18:09.155Z,4.10
2017-11-29T08:20:37.724Z,4.10
2017-11-29T08:23:05.403Z,4.10
2017-11-29T08:25:33.160Z,4.10
2017-11-29T08:28:00.837Z,4.10
2017-11-29T08:30:28.507Z,4.10
2017-11-29T08:32:57.093Z,4.10
2017-11-29T08:35:25.693Z,4.10
2017-11-29T08:37:54.093Z,4.10
2017-11-29T08:40:21.781Z,4.10
2017-11-29T08:42:49.506Z,4.10
2017-11-29T08:45:17.207Z,4.00
2017-11-29T08:47:45.047Z,4.00
2017-11-29T08:50:12.822Z,4.00
2017-11-29T08:52:40.495Z,4.00
2017-11-29T08:55:08.234Z,4.00
2017-11-29T08:57:35.928Z,4.00
2017-11-29T09:00:03.679Z,4.00
2017-11-29T09:02:31.361Z,4.00
2017-11-29T09:04:59.096Z,4.00
2017-11-29T09:07:26.896Z,4.00
2017-11-29T09:09:54.595Z,4.10
2017-11-29T09:12:22.346Z,4.10
2017-11-29T09:14:50.057Z,4.20
2017-11-29T09:17:17.776Z,4.40
2017-11-29T09:19:45.505Z,4.40
2017-11-29T09:22:14.025Z,4.50
2017-11-29T09:24:41.776Z,4.50
2017-11-29T09:27:09.454Z,4.50
2017-11-29T09:29:37.165Z,4.50
2017-11-29T09:32:05.642Z,4.50
2017-11-29T09:34:33.360Z,4.50
2017-11-29T09:37:01.109Z,4.50
2017-11-29T09:39:28.827Z,4.50
2017-11-29T09:41:56.513Z,4.60
2017-11-29T09:44:24.213Z,4.60
2017-11-29T09:46:51.928Z,4.60
2017-11-29T09:49:19.655Z,4.60
2017-11-29T09:51:47.342Z,4.60
2017-11-29T09:54:15.793Z,4.70
2017-11-29T09:56:43.525Z,4.70
2017-11-29T09:59:11.256Z,4.80
2017-11-29T10:01:39.782Z,4.80
2017-11-29T10:04:07.479Z,4.80
2017-11-29T10:06:35.945Z,4.80
2017-11-29T10:09:03.701Z,4.80
2017-11-29T10:11:31.369Z,4.80
2017-11-29T10:13:59.072Z,4.90
2017-11-29T10:16:26.762Z,4.90
2017-11-29T10:18:54.477Z,4.90
2017-11-29T10:21:22.929Z,4.80
2017-11-29T10:23:50.626Z,4.80
2017-11-29T10:26:18.339Z,4.90
2017-11-29T10:28:46.049Z,5.00
2017-11-29T10:31:13.790Z,4.90
2017-11-29T10:33:42.237Z,4.90
2017-11-29T10:36:09.940Z,4.90
2017-11-29T10:38:38.424Z,4.80
2017-11-29T10:41:06.109Z,4.80
2017-11-29T10:43:33.863Z,4.80
2017-11-29T10:46:01.552Z,4.80
2017-11-29T10:48:29.232Z,4.80
2017-11-29T10:50:56.945Z,4.80
2017-11-29T10:53:24.640Z,4.80
2017-11-29T10:55:52.379Z,4.70
2017-11-29T10:58:20.081Z,4.60
2017-11-29T11:00:47.766Z,4.60
2017-11-29T11:03:16.248Z,4.40
2017-11-29T11:05:44.685Z,4.30
2017-11-29T11:08:12.439Z,4.30
2017-11-29T11:10:40.184Z,4.20
2017-11-29T11:13:07.877Z,4.10
2017-11-29T11:15:35.585Z,4.10
2017-11-29T11:18:04.032Z,4.10
2017-11-29T11:20:32.565Z,4.10
2017-11-29T11:23:00.301Z,4.10
2017-11-29T11:25:28.879Z,4.10
2017-11-29T11:27:57.431Z,4.20
2017-11-29T11:30:25.169Z,4.10
2017-11-29T11:32:52.870Z,4.20
2017-11-29T11:35:21.321Z,4.10
2017-11-29T11:37:49.074Z,4.10
2017-11-29T11:40:16.751Z,4.10
2017-11-29T11:42:44.437Z,4.10
2017-11-29T11:45:12.917Z,4.00
2017-11-29T11:47:40.596Z,4.00
2017-11-29T11:50:08.335Z,3.90
2017-11-29T11:52:36.786Z,3.90
2017-11-29T11:55:04.492Z,3.90
2017-11-29T11:57:32.232Z,3.90
2017-11-29T11:59:59.975Z,3.80
2017-11-29T12:02:27.706Z,3.80
2017-11-29T12:04:55.442Z,3.70
2017-11-29T12:07:23.148Z,3.70
2017-11-29T12:09:50.898Z,3.70
2017-11-29T12:12:18.609Z,3.60
2017-11-29T12:14:47.130Z,3.60
2017-11-29T12:17:14.846Z,3.60
2017-11-29T12:19:42.589Z,3.60
2017-11-29T12:22:10.305Z,3.50
2017-11-29T12:24:38.017Z,3.50
2017-11-29T12:27:05.752Z,3.60
2017-11-29T12:29:33.457Z,3.50
2017-11-29T12:32:01.945Z,3.50
2017-11-29T12:34:30.357Z,3.50
2017-11-29T12:36:58.042Z,3.50
2017-11-29T12:39:25.777Z,3.50
2017-11-29T12:41:53.459Z,3.60
2017-11-29T12:44:21.146Z,3.50
2017-11-29T12:46:48.894Z,3.40
2017-11-29T12:49:28.460Z,3.40
2017-11-29T12:51:56.928Z,3.50
2017-11-29T12:54:24.608Z,3.50
2017-11-29T12:56:53.184Z,3.50
2017-11-29T12:59:21.638Z,3.50
2017-11-29T13:01:49.369Z,3.50
2017-11-29T13:04:17.125Z,3.50
2017-11-29T13:06:44.818Z,3.50
2017-11-29T13:09:12.501Z,3.40
2017-11-29T13:11:40.320Z,3.40
2017-11-29T13:14:08.010Z,3.50
2017-11-29T13:16:35.678Z,3.50
2017-11-29T13:19:03.425Z,3.50
2017-11-29T13:21:31.132Z,3.50
2017-11-29T13:23:59.669Z,3.50
2017-11-29T13:26:27.356Z,3.50
2017-11-29T13:28:55.093Z,3.60
2017-11-29T13:31:22.811Z,3.60
2017-11-29T13:33:50.509Z,3.70
2017-11-29T13:36:18.259Z,3.70
2017-11-29T13:38:45.942Z,3.70
2017-11-29T13:41:13.632Z,3.70
2017-11-29T13:43:42.107Z,3.80
2017-11-29T13:46:10.557Z,3.80
2017-11-29T13:48:38.302Z,3.70
2017-11-29T13:51:05.986Z,3.70
2017-11-29T13:53:33.674Z,3.80
2017-11-29T13:56:02.156Z,3.80
2017-11-29T13:58:30.817Z,3.80
2017-11-29T14:00:58.550Z,3.80
2017-11-29T14:03:26.210Z,3.80
2017-11-29T14:05:53.928Z,3.80
2017-11-29T14:08:22.467Z,3.90
2017-11-29T14:10:50.193Z,3.90
2017-11-29T14:13:17.868Z,3.90
2017-11-29T14:15:45.517Z,3.90
2017-11-29T14:18:13.186Z,3.90
2017-11-29T14:20:40.833Z,3.90
2017-11-29T14:23:08.533Z,3.90
2017-11-29T14:25:36.176Z,4.00
2017-11-29T14:28:03.810Z,4.00
2017-11-29T14:30:31.448Z,3.90
2017-11-29T14:32:59.837Z,4.00
2017-11-29T14:35:27.625Z,4.00
2017-11-29T14:37:55.356Z,3.90
2017-11-29T14:40:23.758Z,3.80
2017-11-29T14:42:51.464Z,3.80
2017-11-29T14:45:19.160Z,3.80
2017-11-29T14:47:46.859Z,3.80
2017-11-29T14:50:14.560Z,3.70
2017-11-29T14:52:42.224Z,3.70
2017-11-29T14:55:10.673Z,3.80
2017-11-29T14:57:38.309Z,3.80
2017-11-29T15:00:06.116Z,3.80
2017-11-29T15:02:33.744Z,3.80
2017-11-29T15:05:01.354Z,3.80
2017-11-29T15:07:29.773Z,3.80
2017-11-29T15:09:57.400Z,3.80
2017-11-29T15:12:25.065Z,3.70
2017-11-29T15:14:52.685Z,3.70
2017-11-29T15:17:20.477Z,3.70
2017-11-29T15:19:48.853Z,3.70
2017-11-29T15:22:17.252Z,3.70
2017-11-29T15:24:44.925Z,3.70
2017-11-29T15:27:14.313Z,3.80
2017-11-29T15:29:42.016Z,3.80
2017-11-29T15:32:09.715Z,3.80
2017-11-29T15:34:37.520Z,3.70
2017-11-29T15:37:05.178Z,3.70
2017-11-29T15:39:32.851Z,3.70
2017-11-29T15:42:00.522Z,3.60
2017-11-29T15:44:28.880Z,3.60
2017-11-29T15:46:56.743Z,3.60
2017-11-29T15:49:24.403Z,3.60
2017-11-29T15:51:52.052Z,3.60
2017-11-29T15:54:19.743Z,3.50
2017-11-29T15:56:47.382Z,3.50
2017-11-29T15:59:15.188Z,3.50
2017-11-29T16:01:43.611Z,3.40
2017-11-29T16:04:11.263Z,3.40
2017-11-29T16:06:38.961Z,3.40
2017-11-29T16:09:06.629Z,3.30
2017-11-29T16:11:34.329Z,3.30
2017-11-29T16:14:02.813Z,3.20
2017-11-29T16:16:30.521Z,3.20
2017-11-29T16:18:58.232Z,3.20
2017-11-29T16:21:25.957Z,3.10
2017-11-29T16:23:53.721Z,3.20
2017-11-29T16:26:22.124Z,3.10
2017-11-29T16:28:49.846Z,3.10
2017-11-29T16:31:17.591Z,3.10
2017-11-29T16:33:45.297Z,3.10
2017-11-29T16:36:12.996Z,3.10
2017-11-29T16:38:40.644Z,3.10
2017-11-29T16:41:08.291Z,3.00
2017-11-29T16:43:36.786Z,3.10
2017-11-29T16:46:04.425Z,3.10
2017-11-29T16:48:32.920Z,3.00
2017-11-29T16:51:00.544Z,3.00
2017-11-29T16:53:28.189Z,2.90
2017-11-29T16:55:55.888Z,2.90
2017-11-29T16:58:24.382Z,2.80
2017-11-29T17:00:52.109Z,2.80
2017-11-29T17:03:19.827Z,2.80
2017-11-29T17:05:47.574Z,2.80
2017-11-29T17:08:15.253Z,2.80
2017-11-29T17:10:42.883Z,2.80
2017-11-29T17:13:10.632Z,2.70
2017-11-29T17:15:39.026Z,2.70
2017-11-29T17:18:06.728Z,2.70
2017-11-29T17:20:34.476Z,2.70
2017-11-29T17:23:02.156Z,2.70
2017-11-29T17:25:29.859Z,2.70
2017-11-29T17:27:57.524Z,2.80
2017-11-29T17:30:30.095Z,2.90
2017-11-29T17:32:58.660Z,2.90
2017-11-29T17:35:26.369Z,2.90
2017-11-29T17:37:54.093Z,2.90
2017-11-29T17:40:22.530Z,2.90
2017-11-29T17:42:50.221Z,2.90
2017-11-29T17:45:17.914Z,2.90
2017-11-29T17:47:45.721Z,2.90
2017-11-29T17:50:13.372Z,2.90
2017-11-29T17:52:41.157Z,2.90
2017-11-29T17:55:08.845Z,3.00
2017-11-29T17:57:37.273Z,3.10
2017-11-29T18:00:05.026Z,3.10
2017-11-29T18:02:32.668Z,3.10
2017-11-29T18:05:00.373Z,3.10
2017-11-29T18:07:28.228Z,3.10
2017-11-29T18:09:55.983Z,3.10
2017-11-29T18:12:23.666Z,3.20
2017-11-29T18:14:51.361Z,3.30
2017-11-29T18:17:19.893Z,3.30
2017-11-29T18:19:47.559Z,3.20
2017-11-29T18:22:15.336Z,3.30
2017-11-29T18:24:43.159Z,3.30
2017-11-29T18:27:10.841Z,3.30
2017-11-29T18:29:38.554Z,3.30
2017-11-29T18:32:06.250Z,3.30
2017-11-29T18:34:33.997Z,3.30
2017-11-29T18:37:01.629Z,3.40
2017-11-29T18:39:29.320Z,3.30
2017-11-29T18:41:56.948Z,3.30
2017-11-29T18:44:25.375Z,3.20
2017-11-29T18:46:53.081Z,3.20
2017-11-29T18:49:21.531Z,3.10
2017-11-29T18:51:49.277Z,3.10
2017-11-29T18:54:17.107Z,3.10
2017-11-29T18:56:44.857Z,3.10
2017-11-29T18:59:13.403Z,3.10
2017-11-29T19:01:41.155Z,3.00
2017-11-29T19:04:08.898Z,3.00
2017-11-29T19:06:36.693Z,3.00
2017-11-29T19:09:04.480Z,3.10
2017-11-29T19:11:32.412Z,3.00
2017-11-29T19:14:00.192Z,3.00
2017-11-29T19:16:27.910Z,3.00
2017-11-29T19:18:55.771Z,3.00
2017-11-29T19:21:23.540Z,3.00
2017-11-29T19:23:52.046Z,3.00
2017-11-29T19:26:19.777Z,3.00
2017-11-29T19:28:47.577Z,3.00
2017-11-29T19:31:15.375Z,3.00
2017-11-29T19:33:43.876Z,3.00
2017-11-29T19:36:11.663Z,3.00
2017-11-29T19:38:39.396Z,3.10
2017-11-29T19:41:07.230Z,3.10
2017-11-29T19:43:35.729Z,3.10
2017-11-29T19:46:03.461Z,3.10
2017-11-29T19:48:31.203Z,3.10
2017-11-29T19:50:59.073Z,3.10
2017-11-29T19:53:26.905Z,3.10
2017-11-29T19:55:54.692Z,3.10
2017-11-29T19:58:22.641Z,3.10
2017-11-29T20:00:50.464Z,3.10
2017-11-29T20:03:19.049Z,3.10
2017-11-29T20:05:47.653Z,3.10
2017-11-29T20:08:15.420Z,3.10
2017-11-29T20:10:43.179Z,3.10
2017-11-29T20:13:11.120Z,3.10
2017-11-29T20:15:39.668Z,3.10
2017-11-29T20:18:07.413Z,3.10
2017-11-29T20:20:35.203Z,3.10
2017-11-29T20:23:03.121Z,3.10
2017-11-29T20:25:30.969Z,3.10
2017-11-29T20:27:58.938Z,3.10
2017-11-29T20:30:26.813Z,3.10
2017-11-29T20:32:54.727Z,3.10
2017-11-29T20:35:22.679Z,3.10
2017-11-29T20:37:50.588Z,3.10
2017-11-29T20:40:19.294Z,3.00
2017-11-29T20:42:47.777Z,3.00
2017-11-29T20:45:15.504Z,3.00
2017-11-29T20:47:43.252Z,3.00
2017-11-29T20:50:11.036Z,3.00
2017-11-29T20:52:51.423Z,3.00
2017-11-29T20:55:19.299Z,2.90
2017-11-29T20:57:47.177Z,3.00
2017-11-29T21:00:15.257Z,2.90
2017-11-29T21:02:43.166Z,2.90
2017-11-29T21:05:11.837Z,2.90
2017-11-29T21:07:39.584Z,2.90
2017-11-29T21:10:07.427Z,2.90
2017-11-29T21:12:35.476Z,2.90
2017-11-29T21:15:03.385Z,2.90
2017-11-29T21:17:31.339Z,3.00
2017-11-29T21:19:59.187Z,3.00
2017-11-29T21:22:26.981Z,3.00
2017-11-29T21:24:54.880Z,2.90
2017-11-29T21:27:22.537Z,2.90
2017-11-29T21:29:50.216Z,2.80
2017-11-29T21:32:17.905Z,2.80
2017-11-29T21:34:45.548Z,2.80
2017-11-29T21:37:13.223Z,2.70
2017-11-29T21:39:40.852Z,2.70
2017-11-29T21:42:08.571Z,2.60
2017-11-29T21:44:36.280Z,2.60
2017-11-29T21:47:04.021Z,2.50
2017-11-29T21:49:32.604Z,2.40
2017-11-29T21:52:00.502Z,2.40
2017-11-29T21:54:28.614Z,2.40
2017-11-29T21:56:56.885Z,2.40
2017-11-29T21:59:24.847Z,2.40
2017-11-29T22:01:52.777Z,2.30
2017-11-29T22:04:20.771Z,2.30
2017-11-29T22:06:48.674Z,2.30
2017-11-29T22:09:17.409Z,2.30
2017-11-29T22:11:45.207Z,2.30
2017-11-29T22:14:13.689Z,2.30
2017-11-29T22:16:42.134Z,2.30
2017-11-29T22:19:09.861Z,2.20
2017-11-29T22:21:37.779Z,2.30
2017-11-29T22:24:05.588Z,2.30
2017-11-29T22:26:34.377Z,2.30
2017-11-29T22:29:02.348Z,2.40
2017-11-29T22:31:30.360Z,2.40
2017-11-29T22:33:58.160Z,2.40
2017-11-29T22:36:25.908Z,2.30
2017-11-29T22:38:54.426Z,2.30
2017-11-29T22:41:22.110Z,2.30
2017-11-29T22:43:49.897Z,2.30
2017-11-29T22:46:17.726Z,2.30
2017-11-29T22:48:45.648Z,2.30
2017-11-29T22:51:15.405Z,2.30
2017-11-29T22:53:43.140Z,2.30
2017-11-29T22:56:10.775Z,2.30
2017-11-29T22:58:38.617Z,2.30
2017-11-29T23:01:07.658Z,2.30
2017-11-29T23:03:35.632Z,2.30
2017-11-29T23:06:03.691Z,2.30
2017-11-29T23:08:32.026Z,2.20
2017-11-29T23:11:01.211Z,2.30
2017-11-29T23:13:29.193Z,2.30
2017-11-29T23:15:57.410Z,2.30
2017-11-29T23:18:25.565Z,2.20
2017-11-29T23:20:53.650Z,2.30
2017-11-29T23:23:21.553Z,2.20
2017-11-29T23:25:49.563Z,2.20
2017-11-29T23:28:17.430Z,2.20
2017-11-29T23:30:45.290Z,2.20
2017-11-29T23:33:12.971Z,2.20
2017-11-29T23:35:40.657Z,2.20
2017-11-29T23:38:08.335Z,2.20
2017-11-29T23:40:35.969Z,2.20
2017-11-29T23:43:03.656Z,2.10
2017-11-29T23:45:31.356Z,2.10
2017-11-29T23:47:59.824Z,2.00
2017-11-29T23:50:28.228Z,1.90
2017-11-29T23:52:55.858Z,1.90
2017-11-29T23:55:24.057Z,1.90
2017-11-29T23:57:51.720Z,1.90
